This is the latest recevied weather packets stored in our database for station/object HS5NMF. If no packets are shown the sender has not sent any weather packets the latest 1 day(s).
| Time | Temp. | Humidity | Pressure | Rain* | Wind** | Luminosity | Snow |
|---|---|---|---|---|---|---|---|
| 1778028127 | 31.67° C | 74% | 978 hPa | - | - | 0 W/m² | - |
| 1778027806 | 31.67° C | 76% | 978 hPa | - | - | 0 W/m² | - |
| 1778027480 | 31.11° C | 77% | 978 hPa | - | - | 0 W/m² | - |
| 1778026833 | 30° C | 81% | 978 hPa | - | - | 0 W/m² | - |
| 1778026189 | 29.44° C | 82% | 978 hPa | - | - | 0 W/m² | - |
| 1778024896 | 28.33° C | 91% | 978 hPa | - | - | 0 W/m² | - |
| 1778024576 | 27.78° C | 91% | 978 hPa | - | - | 0 W/m² | - |
| 1778023930 | 27.78° C | 90% | 978 hPa | - | - | 0 W/m² | - |
| 1778023604 | 28.33° C | 86% | 978 hPa | - | - | 0 W/m² | - |
| 1778022958 | 27.78° C | 90% | 978 hPa | - | - | 0 W/m² | - |
| 1778022637 | 28.33° C | 87% | 978 hPa | - | - | 0 W/m² | - |
| 1778021990 | 27.78° C | 89% | 977 hPa | - | - | 0 W/m² | - |
| 1778021344 | 27.22° C | 91% | 977 hPa | - | - | 0 W/m² | - |
| 1778019080 | 27.78° C | 90% | 977 hPa | - | - | 0 W/m² | - |
| 1778018757 | 27.78° C | 90% | 977 hPa | - | - | 0 W/m² | - |
| 1778016492 | 27.78° C | 88% | 977 hPa | - | - | 0 W/m² | - |
| 1778014549 | 27.78° C | 86% | 977 hPa | - | - | 0 W/m² | - |
| 1778013258 | 27.78° C | 87% | 977 hPa | - | - | 0 W/m² | - |
| 1778012609 | 27.78° C | 86% | 977 hPa | - | - | 0 W/m² | - |
| 1778011316 | 28.33° C | 84% | 977 hPa | - | - | 0 W/m² | - |
| 1778010670 | 28.33° C | 85% | 977 hPa | - | - | 0 W/m² | - |
| 1778010346 | 27.78° C | 86% | 977 hPa | - | - | 0 W/m² | - |
| 1778010024 | 27.78° C | 88% | 977 hPa | - | - | 0 W/m² | - |
| 1778008730 | 28.33° C | 86% | 977 hPa | - | - | 0 W/m² | - |
* Rain since midnight (hover to see other rain measurements)
** Current wind speed in m/s (hover to see current wind gust speed)